Time;durP1;ratioP1;P1;durP2;ratioP2;P2;SDS_P1;SDS_P2;PMS_P1;PMS_P2;Temp;Humidity;BMP_temperature;BMP_pressure;BME280_temperature;BME280_humidity;BME280_pressure;Samples;Min_cycle;Max_cycle;Signal;HPM_P1;HPM_P2
2023/11/17 13:22:21;;;;;;;2.83;1.10;;;11.90;73.80;;;;;;2521186;54;23422;-75
2023/11/17 13:24:48;;;;;;;3.28;1.45;;;12.10;76.80;;;;;;2298595;54;20947;-74
2023/11/17 13:27:16;;;;;;;2.45;1.30;;;12.10;77.60;;;;;;2296407;54;21137;-74
2023/11/17 13:29:44;;;;;;;2.60;1.25;;;12.20;77.50;;;;;;2534258;54;21023;-75
2023/11/17 13:32:11;;;;;;;2.47;1.23;;;12.20;77.00;;;;;;2524716;54;21981;-75
2023/11/17 13:34:39;;;;;;;2.67;1.15;;;12.30;76.60;;;;;;2534637;54;21334;-74
2023/11/17 13:37:09;;;;;;;3.50;0.95;;;12.30;76.30;;;;;;2296780;54;20968;-74
2023/11/17 13:39:36;;;;;;;2.42;1.12;;;12.30;76.00;;;;;;2532622;54;21019;-74
2023/11/17 13:42:04;;;;;;;1.75;0.88;;;12.40;75.90;;;;;;2530952;54;21964;-76
2023/11/17 13:44:32;;;;;;;2.53;1.05;;;12.40;75.70;;;;;;2532368;54;21047;-74
2023/11/17 13:46:59;;;;;;;1.98;0.80;;;12.40;75.50;;;;;;2294665;54;20987;-74
2023/11/17 13:49:26;;;;;;;2.05;1.00;;;12.40;75.40;;;;;;2530015;54;21043;-74
2023/11/17 13:52:02;;;;;;;2.40;1.23;;;12.40;75.40;;;;;;2529316;54;20951;-74
2023/11/17 13:54:30;;;;;;;2.33;1.00;;;12.40;75.30;;;;;;2293747;54;20964;-75
2023/11/17 13:56:56;;;;;;;2.60;1.37;;;12.40;75.40;;;;;;2532598;54;20971;-74
2023/11/17 13:59:25;;;;;;;1.98;0.90;;;12.40;75.40;;;;;;2296142;54;20959;-74
2023/11/17 14:01:57;;;;;;;2.10;0.93;;;12.40;75.40;;;;;;2291242;54;20944;-74
2023/11/17 14:04:31;;;;;;;1.60;0.70;;;12.40;75.50;;;;;;2525136;54;21671;-73
2023/11/17 14:06:58;;;;;;;2.10;1.08;;;12.40;75.50;;;;;;2288346;54;21519;-75
2023/11/17 14:09:26;;;;;;;2.65;1.30;;;12.50;75.50;;;;;;2272447;54;22019;-73
2023/11/17 14:11:54;;;;;;;5.65;2.40;;;12.60;75.60;;;;;;2491326;55;20994;-73
2023/11/17 14:14:25;;;;;;;7.75;4.43;;;12.50;75.40;;;;;;2491263;55;21439;-73
2023/11/17 14:16:52;;;;;;;7.15;4.50;;;12.50;75.30;;;;;;2262427;55;20978;-73
2023/11/17 14:19:18;;;;;;;4.78;3.20;;;12.50;75.40;;;;;;2265650;55;20942;-74
2023/11/17 14:21:46;;;;;;;4.07;2.40;;;12.50;75.30;;;;;;2494387;55;20971;-73
2023/11/17 14:24:17;;;;;;;4.28;2.03;;;12.50;75.30;;;;;;2257971;55;21437;-73
2023/11/17 14:26:46;;;;;;;3.10;1.60;;;12.50;75.30;;;;;;2512634;54;20944;-74
2023/11/17 14:29:17;;;;;;;2.80;1.50;;;12.50;75.20;;;;;;2529299;54;20975;-73
2023/11/17 14:31:44;;;;;;;2.92;1.50;;;12.60;75.20;;;;;;2266272;54;21396;-74
2023/11/17 14:34:13;;;;;;;2.30;1.12;;;12.50;75.00;;;;;;2531389;54;20983;-73
2023/11/17 14:36:39;;;;;;;2.30;1.15;;;12.50;75.00;;;;;;2298697;55;21520;-74
2023/11/17 14:39:08;;;;;;;2.20;1.00;;;12.50;75.00;;;;;;2527195;54;21504;-74
2023/11/17 14:41:35;;;;;;;2.05;1.08;;;12.50;75.10;;;;;;2298405;55;20979;-74
2023/11/17 14:44:05;;;;;;;2.08;1.00;;;12.50;75.00;;;;;;2535620;54;21007;-74
2023/11/17 14:46:33;;;;;;;2.40;1.10;;;12.40;74.90;;;;;;2298077;55;21057;-74
2023/11/17 14:49:01;;;;;;;2.95;1.27;;;12.40;74.90;;;;;;2535548;54;20939;-74
2023/11/17 14:51:28;;;;;;;2.15;1.02;;;12.40;74.90;;;;;;2296495;55;20964;-73
2023/11/17 14:53:55;;;;;;;2.25;1.10;;;12.40;74.60;;;;;;2281406;55;21563;-72
2023/11/17 14:56:22;;;;;;;2.20;1.00;;;12.40;74.50;;;;;;2294952;55;21792;-73
2023/11/17 14:58:52;;;;;;;2.08;0.80;;;12.40;74.40;;;;;;2295245;55;20947;-73
2023/11/17 15:01:24;;;;;;;1.83;0.80;;;12.30;74.00;;;;;;2294656;55;21824;-72
2023/11/17 15:03:50;;;;;;;2.80;0.80;;;12.30;74.00;;;;;;2299423;55;21851;-73
2023/11/17 15:06:18;;;;;;;4.30;0.90;;;12.30;73.80;;;;;;2290583;54;21398;-74
2023/11/17 15:08:46;;;;;;;2.05;0.85;;;12.20;73.80;;;;;;2512575;54;21019;-73
2023/11/17 15:11:15;;;;;;;2.15;1.00;;;12.20;73.90;;;;;;2496531;55;20950;-74
2023/11/17 15:13:42;;;;;;;3.15;1.15;;;12.20;73.90;;;;;;2497512;55;21058;-75
2023/11/17 15:16:16;;;;;;;1.95;0.93;;;12.10;73.80;;;;;;2492323;54;21030;-74
2023/11/17 15:18:45;;;;;;;4.28;1.23;;;12.10;73.80;;;;;;2508178;55;21645;-73
2023/11/17 15:21:21;;;;;;;2.92;1.30;;;12.10;73.80;;;;;;2509795;55;20998;-73
2023/11/17 15:23:51;;;;;;;2.22;1.00;;;12.00;73.90;;;;;;2278516;55;20985;-75
2023/11/17 15:26:19;;;;;;;2.87;1.20;;;12.00;74.00;;;;;;2510159;55;21026;-74
2023/11/17 15:28:48;;;;;;;3.45;1.23;;;12.00;74.00;;;;;;2287718;54;21530;-76
2023/11/17 15:31:19;;;;;;;3.50;1.40;;;12.00;74.20;;;;;;2521491;53;20965;-75
2023/11/17 15:33:45;;;;;;;2.53;1.17;;;11.90;74.10;;;;;;2507141;54;20977;-75
2023/11/17 15:36:12;;;;;;;2.50;1.02;;;11.90;74.10;;;;;;2292730;54;21025;-74
2023/11/17 15:38:42;;;;;;;2.08;0.85;;;11.90;74.20;;;;;;2517510;54;20978;-75
2023/11/17 15:41:12;;;;;;;1.15;0.55;;;11.90;74.20;;;;;;2274514;54;20973;-74
2023/11/17 15:43:43;;;;;;;2.58;0.73;;;11.90;74.10;;;;;;2507685;55;21021;-74
2023/11/17 15:46:17;;;;;;;2.35;1.12;;;11.90;74.20;;;;;;2284303;54;21069;-74
2023/11/17 15:48:44;;;;;;;2.22;1.00;;;11.80;74.10;;;;;;2283873;54;21041;-74
2023/11/17 15:51:10;;;;;;;2.70;1.10;;;11.80;74.00;;;;;;2270936;55;21014;-75
2023/11/17 15:53:38;;;;;;;2.10;1.00;;;11.80;74.10;;;;;;2501997;55;20945;-77
2023/11/17 15:56:07;;;;;;;1.60;0.80;;;11.80;74.10;;;;;;2276097;54;20939;-74
2023/11/17 15:58:35;;;;;;;2.37;1.17;;;11.80;74.10;;;;;;2283020;54;21108;-74
2023/11/17 16:01:04;;;;;;;2.62;1.30;;;11.70;73.90;;;;;;2269092;56;21581;-74
2023/11/17 16:03:31;;;;;;;2.40;1.20;;;11.70;73.90;;;;;;2276166;54;20966;-74
2023/11/17 16:05:57;;;;;;;2.40;1.00;;;11.70;74.00;;;;;;2484908;54;21021;-75
2023/11/17 16:08:27;;;;;;;2.30;1.20;;;11.70;74.00;;;;;;2249320;55;20961;-74
2023/11/17 16:10:56;;;;;;;1.83;0.98;;;11.70;73.90;;;;;;2503948;54;20950;-75
2023/11/17 16:13:23;;;;;;;2.37;0.90;;;11.60;73.80;;;;;;2267332;55;21001;-74
2023/11/17 16:15:51;;;;;;;1.75;0.77;;;11.60;73.80;;;;;;2268634;55;21046;-77
2023/11/17 16:18:20;;;;;;;2.10;1.00;;;11.60;73.80;;;;;;2272582;55;21503;-74
2023/11/17 16:20:47;;;;;;;3.15;1.30;;;11.70;74.00;;;;;;2268112;55;21096;-76
2023/11/17 16:23:15;;;;;;;2.75;1.10;;;11.60;73.90;;;;;;2272253;55;21030;-74
2023/11/17 16:25:43;;;;;;;3.50;1.05;;;11.60;73.90;;;;;;2491522;54;20990;-74
2023/11/17 16:28:10;;;;;;;2.60;1.20;;;11.50;73.60;;;;;;2498518;53;21918;-76
2023/11/17 16:30:38;;;;;;;2.25;0.95;;;11.50;73.50;;;;;;2504477;53;20986;-77
2023/11/17 16:33:06;;;;;;;2.17;0.82;;;11.50;73.30;;;;;;2487852;54;21018;-77
2023/11/17 16:35:36;;;;;;;1.50;0.80;;;11.40;73.00;;;;;;2265649;54;20947;-75
2023/11/17 16:38:04;;;;;;;1.20;0.60;;;11.40;73.10;;;;;;2291688;54;21000;-75
2023/11/17 16:40:39;;;;;;;2.42;1.10;;;11.40;73.30;;;;;;2293809;54;21581;-75
2023/11/17 16:43:10;;;;;;;3.70;1.70;;;11.40;73.20;;;;;;2301902;54;22147;-75
2023/11/17 16:45:39;;;;;;;3.97;2.07;;;11.30;73.20;;;;;;2510559;53;21440;-75
2023/11/17 16:48:06;;;;;;;5.28;2.35;;;11.30;73.30;;;;;;2495985;54;21130;-75
2023/11/17 16:50:42;;;;;;;5.25;2.22;;;11.30;73.50;;;;;;2249341;56;20963;-75
2023/11/17 16:53:09;;;;;;;4.82;2.05;;;11.30;73.50;;;;;;2492952;54;21655;-74
2023/11/17 16:55:38;;;;;;;4.35;2.67;;;11.20;73.50;;;;;;2259823;54;21622;-74
2023/11/17 16:58:06;;;;;;;5.00;2.80;;;11.20;73.50;;;;;;2514900;54;20965;-75
2023/11/17 17:00:33;;;;;;;4.57;2.65;;;11.20;73.60;;;;;;2287366;55;20937;-76
2023/11/17 17:03:03;;;;;;;3.83;2.30;;;11.20;73.70;;;;;;2518485;54;20941;-78
2023/11/17 17:05:36;;;;;;;3.22;1.75;;;11.20;73.80;;;;;;2280785;55;21021;-76
2023/11/17 17:08:02;;;;;;;2.95;1.70;;;11.20;73.80;;;;;;2259234;55;20922;-75
2023/11/17 17:10:32;;;;;;;5.10;2.55;;;11.20;73.80;;;;;;2252986;54;20975;-77
2023/11/17 17:12:58;;;;;;;4.25;2.10;;;11.10;73.80;;;;;;2475531;54;20993;-75
2023/11/17 17:15:29;;;;;;;3.42;1.90;;;11.10;73.80;;;;;;2477837;54;21028;-76
2023/11/17 17:17:56;;;;;;;3.60;1.85;;;11.10;73.70;;;;;;2482782;54;21429;-74
2023/11/17 17:20:25;;;;;;;3.20;1.52;;;11.10;73.70;;;;;;2283137;54;21070;-78
2023/11/17 17:22:52;;;;;;;3.22;1.40;;;11.20;73.80;;;;;;2285734;54;20942;-78
2023/11/17 17:25:19;;;;;;;3.12;1.60;;;11.10;73.70;;;;;;2519673;54;21424;-75
2023/11/17 17:27:56;;;;;;;3.90;2.00;;;11.10;73.70;;;;;;2515918;54;21409;-78
2023/11/17 17:30:26;;;;;;;3.17;1.90;;;11.10;73.70;;;;;;2517313;54;21034;-79
2023/11/17 17:32:56;;;;;;;4.05;2.17;;;11.10;73.60;;;;;;2286941;55;21894;-76
2023/11/17 17:35:25;;;;;;;4.28;2.47;;;11.10;73.60;;;;;;2291725;55;21046;-77
2023/11/17 17:37:52;;;;;;;3.75;2.55;;;11.10;73.60;;;;;;2528827;54;20979;-76
2023/11/17 17:40:19;;;;;;;4.32;3.00;;;11.00;73.50;;;;;;2299023;54;20944;-74
2023/11/17 17:42:49;;;;;;;4.82;2.72;;;11.00;73.50;;;;;;2531540;54;21771;-76
2023/11/17 17:45:18;;;;;;;3.33;2.00;;;11.00;74.20;;;;;;2297766;55;20999;-77
2023/11/17 17:47:46;;;;;;;4.18;2.70;;;11.00;73.50;;;;;;2538018;54;22210;-73
2023/11/17 17:50:14;;;;;;;4.37;2.20;;;11.00;73.50;;;;;;2539426;53;21092;-76
2023/11/17 17:52:47;;;;;;;3.28;1.83;;;10.90;73.40;;;;;;2291507;54;21472;-76
2023/11/17 17:55:15;;;;;;;4.03;1.80;;;10.90;73.50;;;;;;2300945;54;20978;-75
2023/11/17 17:57:42;;;;;;;3.40;1.67;;;10.90;73.60;;;;;;2308518;54;21378;-76
2023/11/17 18:00:11;;;;;;;4.05;2.30;;;10.90;73.60;;;;;;2549790;53;20987;-75
2023/11/17 18:02:37;;;;;;;4.07;1.75;;;10.90;73.70;;;;;;2550058;54;20966;-75
2023/11/17 18:05:06;;;;;;;2.80;1.37;;;10.90;73.70;;;;;;2549805;54;21781;-74
2023/11/17 18:07:32;;;;;;;2.25;1.02;;;10.90;73.60;;;;;;2309681;55;20947;-75
2023/11/17 18:09:59;;;;;;;1.98;0.93;;;10.90;73.70;;;;;;2309361;55;20967;-75
2023/11/17 18:12:26;;;;;;;2.35;1.10;;;10.80;73.60;;;;;;2310806;54;21086;-75
2023/11/17 18:14:52;;;;;;;2.50;1.20;;;10.90;73.70;;;;;;2552134;54;21411;-76
2023/11/17 18:17:19;;;;;;;3.67;1.48;;;10.90;73.70;;;;;;2552196;54;20984;-76
2023/11/17 18:19:46;;;;;;;3.83;1.87;;;10.80;73.60;;;;;;2318958;54;21545;-74
2023/11/17 18:22:15;;;;;;;3.20;1.65;;;10.80;73.70;;;;;;2538738;54;21452;-76
2023/11/17 18:24:41;;;;;;;4.50;1.30;;;10.80;73.70;;;;;;2548143;54;20971;-78
2023/11/17 18:27:08;;;;;;;2.58;1.30;;;10.80;73.80;;;;;;2547057;54;21420;-75
2023/11/17 18:29:34;;;;;;;2.28;1.20;;;10.80;73.80;;;;;;2546062;54;21579;-74
2023/11/17 18:32:01;;;;;;;2.40;1.30;;;10.70;73.80;;;;;;2303874;55;21002;-75
2023/11/17 18:34:28;;;;;;;4.37;1.70;;;10.70;73.80;;;;;;2542714;54;21380;-76
2023/11/17 18:36:57;;;;;;;4.68;2.95;;;10.80;74.00;;;;;;2535088;53;21864;-75
2023/11/17 18:39:25;;;;;;;3.87;2.10;;;10.80;74.70;;;;;;2536643;54;20963;-76
2023/11/17 18:41:52;;;;;;;3.70;2.10;;;10.80;74.00;;;;;;2285376;54;20987;-75
2023/11/17 18:44:18;;;;;;;3.47;1.98;;;10.80;74.10;;;;;;2281450;55;20959;-76
2023/11/17 18:46:49;;;;;;;3.30;1.60;;;10.80;74.00;;;;;;2282209;54;21740;-75
2023/11/17 18:49:19;;;;;;;4.65;2.00;;;10.80;74.00;;;;;;2514172;54;21876;-74
2023/11/17 18:51:50;;;;;;;4.65;2.08;;;10.80;74.00;;;;;;2506719;54;21783;-75
2023/11/17 18:54:17;;;;;;;4.55;1.87;;;10.80;74.00;;;;;;2511175;54;22381;-76
2023/11/17 18:56:46;;;;;;;4.87;2.10;;;10.80;74.10;;;;;;2509315;54;21686;-77
2023/11/17 18:59:13;;;;;;;5.62;2.50;;;10.80;74.30;;;;;;2512184;54;21023;-78
2023/11/17 19:01:39;;;;;;;5.72;2.75;;;10.80;74.00;;;;;;2271927;55;21448;-76
2023/11/17 19:04:07;;;;;;;7.32;4.35;;;10.80;74.00;;;;;;2511278;54;21989;-76
2023/11/17 19:06:36;;;;;;;9.35;5.53;;;10.80;73.90;;;;;;2507584;54;20975;-77
2023/11/17 19:09:09;;;;;;;8.57;4.30;;;10.80;73.90;;;;;;2266534;54;21024;-77
2023/11/17 19:11:39;;;;;;;6.00;2.80;;;10.80;74.00;;;;;;2522286;54;20955;-75
2023/11/17 19:14:08;;;;;;;5.85;2.60;;;10.80;74.00;;;;;;2285969;54;21066;-74
2023/11/17 19:16:36;;;;;;;4.37;1.98;;;10.80;74.00;;;;;;2521558;54;20928;-79
2023/11/17 19:19:02;;;;;;;6.75;2.72;;;10.80;74.00;;;;;;2293217;55;21023;-78
2023/11/17 19:21:32;;;;;;;7.45;2.35;;;10.80;74.00;;;;;;2525061;54;20952;-76
2023/11/17 19:24:00;;;;;;;3.67;1.70;;;10.80;74.00;;;;;;2525077;53;20959;-76
2023/11/17 19:26:27;;;;;;;2.97;1.15;;;10.80;74.00;;;;;;2290954;54;20954;-76
2023/11/17 19:28:56;;;;;;;4.03;0.90;;;10.80;74.00;;;;;;2529836;54;21027;-76
2023/11/17 19:31:23;;;;;;;2.15;0.80;;;10.80;74.00;;;;;;2536804;54;20967;-76
2023/11/17 19:33:49;;;;;;;2.50;0.90;;;10.80;74.00;;;;;;2531104;54;21401;-74
2023/11/17 19:36:15;;;;;;;1.87;0.60;;;10.80;74.10;;;;;;2536481;54;21015;-78
2023/11/17 19:38:42;;;;;;;3.05;1.00;;;10.80;74.20;;;;;;2298033;54;20997;-74
2023/11/17 19:41:08;;;;;;;6.30;2.12;;;10.80;74.20;;;;;;2529182;54;21447;-75
2023/11/17 19:43:36;;;;;;;4.75;1.45;;;10.80;74.30;;;;;;2533174;54;22162;-74
2023/11/17 19:46:04;;;;;;;5.03;2.28;;;10.80;74.30;;;;;;2286135;54;21611;-74
2023/11/17 19:48:33;;;;;;;9.45;2.78;;;10.90;74.30;;;;;;2510596;53;20958;-75
2023/11/17 19:51:00;;;;;;;7.50;2.47;;;10.90;74.30;;;;;;2514726;53;21724;-77
2023/11/17 19:53:31;;;;;;;9.25;3.00;;;10.80;74.20;;;;;;2503026;53;20977;-77
2023/11/17 19:55:57;;;;;;;5.80;2.10;;;10.90;74.30;;;;;;2282220;54;20965;-74
2023/11/17 19:58:29;;;;;;;4.18;1.60;;;10.90;74.30;;;;;;2291723;54;20979;-74
2023/11/17 20:01:12;;;;;;;5.35;1.58;;;10.90;74.30;;;;;;2519390;53;21717;-74
2023/11/17 20:03:45;;;;;;;5.05;1.83;;;10.90;74.30;;;;;;2518170;54;20943;-75
2023/11/17 20:06:16;;;;;;;5.00;1.87;;;10.90;74.20;;;;;;2300161;54;21025;-75
2023/11/17 20:08:42;;;;;;;4.53;1.80;;;10.90;74.10;;;;;;2295237;54;20979;-77
2023/11/17 20:11:09;;;;;;;2.72;1.23;;;10.90;74.10;;;;;;2296860;55;20940;-76
2023/11/17 20:13:39;;;;;;;3.65;1.33;;;10.90;74.00;;;;;;2539544;54;21030;-74
2023/11/17 20:16:10;;;;;;;2.45;0.90;;;10.90;74.00;;;;;;2545859;54;20967;-75
2023/11/17 20:18:40;;;;;;;3.50;1.10;;;10.90;74.00;;;;;;2545898;54;20982;-74
2023/11/17 20:21:06;;;;;;;1.60;0.60;;;10.90;74.00;;;;;;2542475;54;20999;-75
2023/11/17 20:23:32;;;;;;;2.05;0.73;;;10.90;74.00;;;;;;2304191;54;20963;-76
2023/11/17 20:26:00;;;;;;;2.00;0.88;;;10.90;74.00;;;;;;2536750;54;21012;-76
2023/11/17 20:28:27;;;;;;;2.20;0.80;;;10.90;74.10;;;;;;2527577;53;20982;-77
2023/11/17 20:30:53;;;;;;;1.98;0.70;;;10.80;74.00;;;;;;2532999;54;21183;-74
2023/11/17 20:33:20;;;;;;;1.08;0.52;;;10.80;74.00;;;;;;2530956;54;21508;-74
2023/11/17 20:35:47;;;;;;;2.12;0.80;;;10.80;74.10;;;;;;2529490;54;20922;-74
2023/11/17 20:38:16;;;;;;;2.15;0.82;;;10.80;74.00;;;;;;2525170;53;20970;-74
2023/11/17 20:40:42;;;;;;;2.72;0.82;;;10.90;74.10;;;;;;2524384;53;20953;-76
2023/11/17 20:43:13;;;;;;;1.77;0.70;;;10.90;74.10;;;;;;2287740;54;21496;-76
2023/11/17 20:45:43;;;;;;;1.92;0.80;;;10.90;74.10;;;;;;2529651;53;21028;-76
2023/11/17 20:48:11;;;;;;;3.25;1.37;;;10.80;73.90;;;;;;2539973;54;20943;-76
2023/11/17 20:50:38;;;;;;;4.97;1.98;;;10.90;74.00;;;;;;2540307;54;21003;-76
2023/11/17 20:53:08;;;;;;;3.47;1.55;;;10.80;73.90;;;;;;2295503;54;21555;-74
2023/11/17 20:55:37;;;;;;;4.22;1.80;;;10.80;74.00;;;;;;2535580;54;20994;-73
2023/11/17 20:58:04;;;;;;;3.17;1.50;;;10.80;74.20;;;;;;2546081;54;20943;-74
2023/11/17 21:00:33;;;;;;;3.80;1.77;;;10.80;74.10;;;;;;2543457;54;21452;-75
2023/11/17 21:03:00;;;;;;;3.85;1.73;;;10.90;74.30;;;;;;2307431;54;20956;-75
2023/11/17 21:05:26;;;;;;;4.97;1.83;;;10.90;74.40;;;;;;2541155;54;20955;-76
2023/11/17 21:07:56;;;;;;;3.53;1.83;;;10.90;74.40;;;;;;2543670;54;20967;-75
2023/11/17 21:10:22;;;;;;;2.95;1.55;;;10.90;74.40;;;;;;2542085;54;20958;-75
2023/11/17 21:12:51;;;;;;;2.90;1.52;;;10.90;74.50;;;;;;2541289;54;20978;-76
2023/11/17 21:15:18;;;;;;;3.17;1.30;;;10.90;74.50;;;;;;2298145;54;20943;-75
2023/11/17 21:17:46;;;;;;;2.60;1.25;;;10.90;74.60;;;;;;2301837;54;22232;-75
2023/11/17 21:20:13;;;;;;;3.50;1.50;;;10.90;74.50;;;;;;2298355;54;20967;-75
2023/11/17 21:22:40;;;;;;;2.80;1.40;;;10.90;74.50;;;;;;2530025;53;20969;-75
2023/11/17 21:25:08;;;;;;;2.15;1.00;;;10.90;74.60;;;;;;2535740;53;20926;-76
2023/11/17 21:27:36;;;;;;;2.42;1.20;;;10.90;74.50;;;;;;2285278;54;21030;-75
2023/11/17 21:30:05;;;;;;;2.72;1.15;;;10.90;74.50;;;;;;2301905;54;21019;-74
2023/11/17 21:32:32;;;;;;;2.35;1.17;;;10.90;74.40;;;;;;2299384;55;21731;-74
2023/11/17 21:34:58;;;;;;;2.92;1.02;;;11.00;74.50;;;;;;2541030;54;21046;-76
2023/11/17 21:37:26;;;;;;;2.05;0.90;;;11.00;74.50;;;;;;2541656;54;21653;-74
2023/11/17 21:39:53;;;;;;;2.37;0.90;;;11.00;74.50;;;;;;2539307;54;21023;-75
2023/11/17 21:42:24;;;;;;;1.40;0.70;;;11.00;74.50;;;;;;2538011;53;20924;-76
2023/11/17 21:44:52;;;;;;;1.83;0.80;;;11.00;74.50;;;;;;2542147;54;21670;-74
2023/11/17 21:47:22;;;;;;;3.08;0.82;;;11.00;74.50;;;;;;2540637;54;21302;-78
2023/11/17 21:49:48;;;;;;;1.80;0.80;;;11.00;74.60;;;;;;2540063;54;20959;-75
2023/11/17 21:52:16;;;;;;;2.03;1.00;;;11.00;74.60;;;;;;2298461;54;22132;-78
2023/11/17 21:54:46;;;;;;;5.93;1.10;;;11.00;74.50;;;;;;2529832;53;20967;-77
2023/11/17 21:57:13;;;;;;;2.45;1.10;;;11.00;74.50;;;;;;2539415;54;21002;-74
2023/11/17 21:59:42;;;;;;;2.17;1.10;;;11.00;74.50;;;;;;2538451;54;20944;-76
2023/11/17 22:02:10;;;;;;;2.78;0.90;;;11.10;74.60;;;;;;2538063;54;20967;-76
2023/11/17 22:04:36;;;;;;;1.73;0.90;;;11.10;74.60;;;;;;2297370;55;20967;-74
2023/11/17 22:07:02;;;;;;;2.15;0.98;;;11.10;74.60;;;;;;2530236;53;21002;-77
2023/11/17 22:09:33;;;;;;;1.92;0.90;;;11.10;75.20;;;;;;2510155;54;20951;-75
2023/11/17 22:12:06;;;;;;;1.90;0.80;;;11.10;74.50;;;;;;2300939;55;21494;-75
2023/11/17 22:14:33;;;;;;;2.30;1.10;;;11.10;74.50;;;;;;2539358;54;20991;-74
2023/11/17 22:17:02;;;;;;;1.92;0.90;;;11.20;74.60;;;;;;2539097;54;21830;-77
2023/11/17 22:19:31;;;;;;;1.80;0.77;;;11.10;74.50;;;;;;2535882;54;20995;-75
2023/11/17 22:21:57;;;;;;;2.35;1.10;;;11.10;74.50;;;;;;2540475;54;21768;-75
2023/11/17 22:24:23;;;;;;;2.22;1.00;;;11.10;74.50;;;;;;2302466;54;21030;-76
2023/11/17 22:26:52;;;;;;;2.33;0.95;;;11.10;74.50;;;;;;2540674;54;20990;-74
2023/11/17 22:29:19;;;;;;;2.65;1.20;;;11.20;74.50;;;;;;2300534;54;21023;-75
2023/11/17 22:31:46;;;;;;;3.50;1.33;;;11.10;74.40;;;;;;2542216;54;21500;-74
2023/11/17 22:34:12;;;;;;;3.50;1.23;;;11.10;74.40;;;;;;2537276;54;20990;-78
2023/11/17 22:36:39;;;;;;;3.42;0.95;;;11.10;74.40;;;;;;2295888;55;20983;-77
2023/11/17 22:39:08;;;;;;;2.20;1.00;;;11.10;74.40;;;;;;2538528;54;22186;-74
2023/11/17 22:41:35;;;;;;;3.10;1.20;;;11.10;74.40;;;;;;2536408;54;22683;-74
2023/11/17 22:44:01;;;;;;;2.17;0.80;;;11.20;74.50;;;;;;2535346;53;20995;-75
2023/11/17 22:46:28;;;;;;;1.92;0.80;;;11.10;74.40;;;;;;2538989;54;21067;-76
2023/11/17 22:48:56;;;;;;;2.00;0.90;;;11.10;74.30;;;;;;2541181;54;21554;-78
2023/11/17 22:51:23;;;;;;;3.30;1.00;;;11.20;74.30;;;;;;2539868;54;20963;-75
2023/11/17 22:53:50;;;;;;;3.08;1.50;;;11.10;74.20;;;;;;2540146;54;20980;-75
2023/11/17 22:56:21;;;;;;;2.50;1.10;;;11.10;74.20;;;;;;2541513;54;21408;-73
2023/11/17 22:58:48;;;;;;;2.33;1.30;;;11.10;74.10;;;;;;2299024;54;20974;-75
2023/11/17 23:01:20;;;;;;;3.12;1.65;;;11.10;74.10;;;;;;2540862;54;21565;-76
2023/11/17 23:03:52;;;;;;;3.12;1.30;;;11.10;74.20;;;;;;2540165;54;20990;-75
2023/11/17 23:06:20;;;;;;;3.90;1.85;;;11.10;74.20;;;;;;2542697;54;20971;-75
2023/11/17 23:08:47;;;;;;;4.82;2.20;;;11.10;74.20;;;;;;2539856;54;21404;-75
2023/11/17 23:11:14;;;;;;;3.40;1.70;;;11.10;74.20;;;;;;2539674;54;21591;-74
2023/11/17 23:13:41;;;;;;;4.32;1.70;;;11.10;74.30;;;;;;2300416;55;20945;-75
2023/11/17 23:16:09;;;;;;;3.42;1.92;;;11.10;74.30;;;;;;2531654;53;21020;-75
2023/11/17 23:18:36;;;;;;;3.22;1.67;;;11.10;74.30;;;;;;2533672;54;21530;-75
2023/11/17 23:21:02;;;;;;;2.83;1.50;;;11.10;74.30;;;;;;2296071;55;21063;-75
2023/11/17 23:23:29;;;;;;;3.28;1.20;;;11.10;74.30;;;;;;2533626;54;20975;-75
2023/11/17 23:25:56;;;;;;;2.42;1.10;;;11.10;74.30;;;;;;2535397;54;21818;-74
2023/11/17 23:28:22;;;;;;;2.05;0.90;;;11.10;74.20;;;;;;2535783;54;20931;-75
2023/11/17 23:30:48;;;;;;;2.97;1.20;;;11.10;74.20;;;;;;2520880;53;20983;-74
2023/11/17 23:33:22;;;;;;;2.75;0.90;;;11.10;74.10;;;;;;2270803;54;21996;-75
2023/11/17 23:35:52;;;;;;;2.20;0.90;;;11.10;74.10;;;;;;2532645;54;21003;-73
2023/11/17 23:38:19;;;;;;;2.05;0.90;;;11.10;74.00;;;;;;2292319;54;20950;-75
2023/11/17 23:40:50;;;;;;;2.10;0.90;;;11.10;74.00;;;;;;2534821;54;22210;-73
2023/11/17 23:43:25;;;;;;;2.55;0.80;;;11.10;74.00;;;;;;2531823;53;20989;-76
2023/11/17 23:45:52;;;;;;;2.17;0.77;;;11.10;74.00;;;;;;2513861;53;21059;-75
2023/11/17 23:48:18;;;;;;;2.72;0.90;;;11.10;74.00;;;;;;2538196;54;22095;-76
2023/11/17 23:50:46;;;;;;;1.70;0.70;;;11.10;74.00;;;;;;2303461;54;21002;-74
2023/11/17 23:53:12;;;;;;;1.95;0.80;;;11.10;74.00;;;;;;2541128;53;20986;-75
2023/11/17 23:55:39;;;;;;;1.80;0.90;;;11.00;73.80;;;;;;2524466;53;20993;-77
2023/11/17 23:58:08;;;;;;;1.90;1.00;;;11.00;73.80;;;;;;2521432;54;21547;-74
